sensor_id;sensor_type;location;lat;lon;timestamp;P1;durP1;ratioP1;P2;durP2;ratioP2
1380;SDS011;684;48.342;10.096;2024-01-30T00:00:35;18.67;;;11.67;;
1380;SDS011;684;48.342;10.096;2024-01-30T00:03:02;12.90;;;9.30;;
1380;SDS011;684;48.342;10.096;2024-01-30T00:05:30;17.23;;;11.67;;
1380;SDS011;684;48.342;10.096;2024-01-30T00:07:57;16.70;;;11.80;;
1380;SDS011;684;48.342;10.096;2024-01-30T00:10:24;18.53;;;11.50;;
1380;SDS011;684;48.342;10.096;2024-01-30T00:12:50;15.17;;;11.20;;
1380;SDS011;684;48.342;10.096;2024-01-30T00:15:17;19.23;;;12.00;;
1380;SDS011;684;48.342;10.096;2024-01-30T00:17:44;19.03;;;10.90;;
1380;SDS011;684;48.342;10.096;2024-01-30T00:20:11;16.70;;;11.37;;
1380;SDS011;684;48.342;10.096;2024-01-30T00:22:39;15.50;;;11.43;;
1380;SDS011;684;48.342;10.096;2024-01-30T00:25:06;20.07;;;12.07;;
1380;SDS011;684;48.342;10.096;2024-01-30T00:27:33;18.17;;;12.20;;
1380;SDS011;684;48.342;10.096;2024-01-30T00:29:59;17.77;;;12.03;;
1380;SDS011;684;48.342;10.096;2024-01-30T00:32:26;17.53;;;11.83;;
1380;SDS011;684;48.342;10.096;2024-01-30T00:34:53;16.80;;;11.90;;
1380;SDS011;684;48.342;10.096;2024-01-30T00:37:20;19.07;;;11.40;;
1380;SDS011;684;48.342;10.096;2024-01-30T00:39:48;16.20;;;12.23;;
1380;SDS011;684;48.342;10.096;2024-01-30T00:42:15;18.57;;;12.60;;
1380;SDS011;684;48.342;10.096;2024-01-30T00:44:41;19.70;;;11.97;;
1380;SDS011;684;48.342;10.096;2024-01-30T00:47:08;17.70;;;12.03;;
1380;SDS011;684;48.342;10.096;2024-01-30T00:49:35;19.00;;;12.37;;
1380;SDS011;684;48.342;10.096;2024-01-30T00:52:02;20.27;;;13.23;;
1380;SDS011;684;48.342;10.096;2024-01-30T00:54:29;21.73;;;14.13;;
1380;SDS011;684;48.342;10.096;2024-01-30T00:56:57;23.77;;;14.00;;
1380;SDS011;684;48.342;10.096;2024-01-30T00:59:24;23.30;;;14.50;;
1380;SDS011;684;48.342;10.096;2024-01-30T01:01:51;33.07;;;20.07;;
1380;SDS011;684;48.342;10.096;2024-01-30T01:04:17;21.20;;;14.03;;
1380;SDS011;684;48.342;10.096;2024-01-30T01:06:46;21.70;;;11.87;;
1380;SDS011;684;48.342;10.096;2024-01-30T01:09:14;17.30;;;11.83;;
1380;SDS011;684;48.342;10.096;2024-01-30T01:11:40;18.57;;;12.63;;
1380;SDS011;684;48.342;10.096;2024-01-30T01:14:08;20.30;;;13.33;;
1380;SDS011;684;48.342;10.096;2024-01-30T01:16:35;28.63;;;17.17;;
1380;SDS011;684;48.342;10.096;2024-01-30T01:19:02;19.77;;;14.23;;
1380;SDS011;684;48.342;10.096;2024-01-30T01:21:29;22.30;;;17.23;;
1380;SDS011;684;48.342;10.096;2024-01-30T01:23:56;22.33;;;17.23;;
1380;SDS011;684;48.342;10.096;2024-01-30T01:26:22;17.67;;;12.57;;
1380;SDS011;684;48.342;10.096;2024-01-30T01:28:49;21.73;;;11.40;;
1380;SDS011;684;48.342;10.096;2024-01-30T01:31:17;17.53;;;11.77;;
1380;SDS011;684;48.342;10.096;2024-01-30T01:33:44;17.33;;;9.93;;
1380;SDS011;684;48.342;10.096;2024-01-30T01:36:11;13.77;;;9.93;;
1380;SDS011;684;48.342;10.096;2024-01-30T01:38:39;16.67;;;9.50;;
1380;SDS011;684;48.342;10.096;2024-01-30T01:41:06;14.40;;;9.50;;
1380;SDS011;684;48.342;10.096;2024-01-30T01:43:32;15.93;;;10.60;;
1380;SDS011;684;48.342;10.096;2024-01-30T01:45:59;16.50;;;9.57;;
1380;SDS011;684;48.342;10.096;2024-01-30T01:48:27;16.17;;;9.40;;
1380;SDS011;684;48.342;10.096;2024-01-30T01:50:54;14.40;;;9.97;;
1380;SDS011;684;48.342;10.096;2024-01-30T01:53:21;14.80;;;9.93;;
1380;SDS011;684;48.342;10.096;2024-01-30T01:55:48;17.30;;;9.27;;
1380;SDS011;684;48.342;10.096;2024-01-30T01:58:15;14.47;;;9.97;;
1380;SDS011;684;48.342;10.096;2024-01-30T02:00:42;16.37;;;10.43;;
1380;SDS011;684;48.342;10.096;2024-01-30T02:03:09;16.53;;;10.27;;
1380;SDS011;684;48.342;10.096;2024-01-30T02:05:39;14.47;;;10.00;;
1380;SDS011;684;48.342;10.096;2024-01-30T02:08:07;15.70;;;9.93;;
1380;SDS011;684;48.342;10.096;2024-01-30T02:10:35;16.07;;;10.97;;
1380;SDS011;684;48.342;10.096;2024-01-30T02:13:01;17.03;;;9.80;;
1380;SDS011;684;48.342;10.096;2024-01-30T02:15:29;16.67;;;10.50;;
1380;SDS011;684;48.342;10.096;2024-01-30T02:17:56;16.37;;;11.50;;
1380;SDS011;684;48.342;10.096;2024-01-30T02:20:23;16.27;;;10.40;;
1380;SDS011;684;48.342;10.096;2024-01-30T02:22:52;17.80;;;11.20;;
1380;SDS011;684;48.342;10.096;2024-01-30T02:25:29;18.40;;;11.77;;
1380;SDS011;684;48.342;10.096;2024-01-30T02:27:56;14.17;;;10.90;;
1380;SDS011;684;48.342;10.096;2024-01-30T02:30:23;17.50;;;11.17;;
1380;SDS011;684;48.342;10.096;2024-01-30T02:32:50;15.63;;;11.07;;
1380;SDS011;684;48.342;10.096;2024-01-30T02:35:16;14.70;;;10.20;;
1380;SDS011;684;48.342;10.096;2024-01-30T02:37:43;15.90;;;10.50;;
1380;SDS011;684;48.342;10.096;2024-01-30T02:40:11;12.83;;;9.00;;
1380;SDS011;684;48.342;10.096;2024-01-30T02:42:38;8.97;;;6.47;;
1380;SDS011;684;48.342;10.096;2024-01-30T02:45:07;13.80;;;9.63;;
1380;SDS011;684;48.342;10.096;2024-01-30T02:47:34;10.67;;;7.00;;
1380;SDS011;684;48.342;10.096;2024-01-30T02:50:02;12.70;;;7.50;;
1380;SDS011;684;48.342;10.096;2024-01-30T02:52:29;13.27;;;7.70;;
1380;SDS011;684;48.342;10.096;2024-01-30T02:54:55;12.07;;;7.83;;
1380;SDS011;684;48.342;10.096;2024-01-30T02:57:24;13.70;;;7.80;;
1380;SDS011;684;48.342;10.096;2024-01-30T02:59:50;11.10;;;7.33;;
1380;SDS011;684;48.342;10.096;2024-01-30T03:02:17;13.80;;;8.13;;
1380;SDS011;684;48.342;10.096;2024-01-30T03:04:44;13.33;;;8.93;;
1380;SDS011;684;48.342;10.096;2024-01-30T03:07:11;12.43;;;8.20;;
1380;SDS011;684;48.342;10.096;2024-01-30T03:09:37;14.30;;;8.10;;
1380;SDS011;684;48.342;10.096;2024-01-30T03:12:04;12.77;;;8.13;;
1380;SDS011;684;48.342;10.096;2024-01-30T03:14:33;13.00;;;7.07;;
1380;SDS011;684;48.342;10.096;2024-01-30T03:17:00;12.67;;;8.00;;
1380;SDS011;684;48.342;10.096;2024-01-30T03:19:26;13.50;;;8.00;;
1380;SDS011;684;48.342;10.096;2024-01-30T03:21:53;12.53;;;8.30;;
1380;SDS011;684;48.342;10.096;2024-01-30T03:24:20;10.97;;;7.27;;
1380;SDS011;684;48.342;10.096;2024-01-30T03:26:46;13.97;;;7.97;;
1380;SDS011;684;48.342;10.096;2024-01-30T03:29:13;14.00;;;7.47;;
1380;SDS011;684;48.342;10.096;2024-01-30T03:31:42;11.90;;;7.23;;
1380;SDS011;684;48.342;10.096;2024-01-30T03:34:08;12.67;;;7.60;;
1380;SDS011;684;48.342;10.096;2024-01-30T03:36:35;10.60;;;7.20;;
1380;SDS011;684;48.342;10.096;2024-01-30T03:39:02;12.50;;;8.37;;
1380;SDS011;684;48.342;10.096;2024-01-30T03:41:29;12.73;;;7.53;;
1380;SDS011;684;48.342;10.096;2024-01-30T03:43:56;11.60;;;7.70;;
1380;SDS011;684;48.342;10.096;2024-01-30T03:46:22;10.07;;;7.10;;
1380;SDS011;684;48.342;10.096;2024-01-30T03:48:51;11.17;;;7.33;;
1380;SDS011;684;48.342;10.096;2024-01-30T03:51:18;13.33;;;7.30;;
1380;SDS011;684;48.342;10.096;2024-01-30T03:53:44;12.53;;;7.57;;
1380;SDS011;684;48.342;10.096;2024-01-30T03:56:12;12.70;;;8.40;;
1380;SDS011;684;48.342;10.096;2024-01-30T03:58:39;13.47;;;8.30;;
1380;SDS011;684;48.342;10.096;2024-01-30T04:01:06;12.70;;;8.40;;
1380;SDS011;684;48.342;10.096;2024-01-30T04:03:33;12.90;;;7.90;;
1380;SDS011;684;48.342;10.096;2024-01-30T04:06:01;12.47;;;7.83;;
1380;SDS011;684;48.342;10.096;2024-01-30T04:08:27;12.40;;;7.83;;
1380;SDS011;684;48.342;10.096;2024-01-30T04:10:54;14.03;;;8.87;;
1380;SDS011;684;48.342;10.096;2024-01-30T04:13:21;16.33;;;9.00;;
1380;SDS011;684;48.342;10.096;2024-01-30T04:15:47;13.23;;;8.90;;
1380;SDS011;684;48.342;10.096;2024-01-30T04:18:14;13.80;;;9.67;;
1380;SDS011;684;48.342;10.096;2024-01-30T04:20:41;15.50;;;10.00;;
1380;SDS011;684;48.342;10.096;2024-01-30T04:23:09;14.40;;;10.73;;
1380;SDS011;684;48.342;10.096;2024-01-30T04:25:36;15.10;;;9.80;;
1380;SDS011;684;48.342;10.096;2024-01-30T04:28:02;16.73;;;11.33;;
1380;SDS011;684;48.342;10.096;2024-01-30T04:30:30;14.27;;;9.77;;
1380;SDS011;684;48.342;10.096;2024-01-30T04:32:56;13.43;;;10.00;;
1380;SDS011;684;48.342;10.096;2024-01-30T04:35:23;13.93;;;9.60;;
1380;SDS011;684;48.342;10.096;2024-01-30T04:37:51;16.30;;;10.20;;
1380;SDS011;684;48.342;10.096;2024-01-30T04:40:19;17.83;;;10.77;;
1380;SDS011;684;48.342;10.096;2024-01-30T04:42:46;14.93;;;9.70;;
1380;SDS011;684;48.342;10.096;2024-01-30T04:45:13;15.27;;;11.10;;
1380;SDS011;684;48.342;10.096;2024-01-30T04:47:40;16.70;;;11.90;;
1380;SDS011;684;48.342;10.096;2024-01-30T04:50:07;32.63;;;13.10;;
1380;SDS011;684;48.342;10.096;2024-01-30T04:52:34;15.60;;;11.30;;
1380;SDS011;684;48.342;10.096;2024-01-30T04:55:02;16.70;;;11.90;;
1380;SDS011;684;48.342;10.096;2024-01-30T04:57:30;16.20;;;11.67;;
1380;SDS011;684;48.342;10.096;2024-01-30T04:59:58;16.30;;;11.90;;
1380;SDS011;684;48.342;10.096;2024-01-30T05:02:25;21.03;;;12.60;;
1380;SDS011;684;48.342;10.096;2024-01-30T05:04:52;20.07;;;13.17;;
1380;SDS011;684;48.342;10.096;2024-01-30T05:07:18;20.47;;;13.17;;
1380;SDS011;684;48.342;10.096;2024-01-30T05:09:45;19.93;;;12.47;;
1380;SDS011;684;48.342;10.096;2024-01-30T05:12:12;20.50;;;13.17;;
1380;SDS011;684;48.342;10.096;2024-01-30T05:14:40;21.33;;;14.10;;
1380;SDS011;684;48.342;10.096;2024-01-30T05:17:06;19.07;;;12.53;;
1380;SDS011;684;48.342;10.096;2024-01-30T05:19:35;20.00;;;12.33;;
1380;SDS011;684;48.342;10.096;2024-01-30T05:22:01;18.70;;;12.07;;
1380;SDS011;684;48.342;10.096;2024-01-30T05:24:28;20.23;;;13.23;;
1380;SDS011;684;48.342;10.096;2024-01-30T05:26:55;20.67;;;12.70;;
1380;SDS011;684;48.342;10.096;2024-01-30T05:29:22;18.83;;;12.73;;
1380;SDS011;684;48.342;10.096;2024-01-30T05:31:50;17.90;;;12.10;;
1380;SDS011;684;48.342;10.096;2024-01-30T05:34:17;20.60;;;12.67;;
1380;SDS011;684;48.342;10.096;2024-01-30T05:36:44;21.63;;;13.27;;
1380;SDS011;684;48.342;10.096;2024-01-30T05:39:10;18.33;;;11.33;;
1380;SDS011;684;48.342;10.096;2024-01-30T05:41:38;19.13;;;13.17;;
1380;SDS011;684;48.342;10.096;2024-01-30T05:44:05;17.77;;;12.73;;
1380;SDS011;684;48.342;10.096;2024-01-30T05:46:31;17.57;;;13.10;;
1380;SDS011;684;48.342;10.096;2024-01-30T05:49:00;20.37;;;13.60;;
1380;SDS011;684;48.342;10.096;2024-01-30T05:51:27;18.37;;;12.27;;
1380;SDS011;684;48.342;10.096;2024-01-30T05:53:54;19.90;;;12.70;;
1380;SDS011;684;48.342;10.096;2024-01-30T05:56:21;19.87;;;12.23;;
1380;SDS011;684;48.342;10.096;2024-01-30T05:58:47;18.03;;;12.53;;
1380;SDS011;684;48.342;10.096;2024-01-30T06:01:15;16.87;;;11.23;;
1380;SDS011;684;48.342;10.096;2024-01-30T06:03:42;18.00;;;12.07;;
1380;SDS011;684;48.342;10.096;2024-01-30T06:06:10;17.80;;;12.33;;
1380;SDS011;684;48.342;10.096;2024-01-30T06:08:37;20.50;;;13.00;;
1380;SDS011;684;48.342;10.096;2024-01-30T06:11:04;17.87;;;11.67;;
1380;SDS011;684;48.342;10.096;2024-01-30T06:13:31;22.67;;;12.27;;
1380;SDS011;684;48.342;10.096;2024-01-30T06:15:58;17.90;;;12.07;;
1380;SDS011;684;48.342;10.096;2024-01-30T06:18:24;18.50;;;12.03;;
1380;SDS011;684;48.342;10.096;2024-01-30T06:20:52;18.53;;;11.87;;
1380;SDS011;684;48.342;10.096;2024-01-30T06:23:20;18.07;;;11.90;;
1380;SDS011;684;48.342;10.096;2024-01-30T06:25:46;19.30;;;13.17;;
1380;SDS011;684;48.342;10.096;2024-01-30T06:28:13;16.30;;;11.03;;
1380;SDS011;684;48.342;10.096;2024-01-30T06:30:40;19.13;;;13.50;;
1380;SDS011;684;48.342;10.096;2024-01-30T06:33:07;21.63;;;14.33;;
1380;SDS011;684;48.342;10.096;2024-01-30T06:35:33;19.77;;;13.13;;
1380;SDS011;684;48.342;10.096;2024-01-30T06:38:01;22.83;;;13.93;;
1380;SDS011;684;48.342;10.096;2024-01-30T06:40:29;19.67;;;12.20;;
1380;SDS011;684;48.342;10.096;2024-01-30T06:42:55;17.07;;;11.50;;
1380;SDS011;684;48.342;10.096;2024-01-30T06:45:22;21.87;;;13.70;;
1380;SDS011;684;48.342;10.096;2024-01-30T06:47:49;18.47;;;11.13;;
1380;SDS011;684;48.342;10.096;2024-01-30T06:50:15;22.47;;;13.40;;
1380;SDS011;684;48.342;10.096;2024-01-30T06:52:42;17.27;;;11.23;;
1380;SDS011;684;48.342;10.096;2024-01-30T06:55:09;21.97;;;13.00;;
1380;SDS011;684;48.342;10.096;2024-01-30T06:57:37;18.10;;;12.57;;
1380;SDS011;684;48.342;10.096;2024-01-30T07:00:04;15.97;;;10.90;;
1380;SDS011;684;48.342;10.096;2024-01-30T07:02:32;13.80;;;10.67;;
1380;SDS011;684;48.342;10.096;2024-01-30T07:04:58;16.47;;;10.90;;
1380;SDS011;684;48.342;10.096;2024-01-30T07:07:25;16.27;;;11.23;;
1380;SDS011;684;48.342;10.096;2024-01-30T07:09:52;16.23;;;10.93;;
1380;SDS011;684;48.342;10.096;2024-01-30T07:12:21;16.40;;;11.03;;
1380;SDS011;684;48.342;10.096;2024-01-30T07:14:50;12.60;;;9.07;;
1380;SDS011;684;48.342;10.096;2024-01-30T07:17:17;16.87;;;11.07;;
1380;SDS011;684;48.342;10.096;2024-01-30T07:19:44;14.67;;;10.13;;
1380;SDS011;684;48.342;10.096;2024-01-30T07:22:11;15.13;;;10.57;;
1380;SDS011;684;48.342;10.096;2024-01-30T07:24:42;14.60;;;10.23;;
1380;SDS011;684;48.342;10.096;2024-01-30T07:27:12;15.77;;;9.83;;
1380;SDS011;684;48.342;10.096;2024-01-30T07:29:38;12.50;;;8.57;;
1380;SDS011;684;48.342;10.096;2024-01-30T07:32:06;13.40;;;9.90;;
1380;SDS011;684;48.342;10.096;2024-01-30T07:34:33;17.70;;;10.50;;
1380;SDS011;684;48.342;10.096;2024-01-30T07:37:01;13.97;;;10.10;;
1380;SDS011;684;48.342;10.096;2024-01-30T07:39:28;12.63;;;9.10;;
1380;SDS011;684;48.342;10.096;2024-01-30T07:41:54;13.50;;;9.63;;
1380;SDS011;684;48.342;10.096;2024-01-30T07:44:21;11.60;;;8.87;;
1380;SDS011;684;48.342;10.096;2024-01-30T07:46:48;21.03;;;9.90;;
1380;SDS011;684;48.342;10.096;2024-01-30T07:49:16;12.10;;;8.60;;
1380;SDS011;684;48.342;10.096;2024-01-30T07:51:43;14.83;;;8.90;;
1380;SDS011;684;48.342;10.096;2024-01-30T07:54:10;13.03;;;9.20;;
1380;SDS011;684;48.342;10.096;2024-01-30T07:56:36;13.10;;;8.53;;
1380;SDS011;684;48.342;10.096;2024-01-30T07:59:03;13.37;;;9.40;;
1380;SDS011;684;48.342;10.096;2024-01-30T08:01:30;14.20;;;9.10;;
1380;SDS011;684;48.342;10.096;2024-01-30T08:03:57;12.83;;;8.53;;
1380;SDS011;684;48.342;10.096;2024-01-30T08:06:25;12.43;;;8.73;;
1380;SDS011;684;48.342;10.096;2024-01-30T08:08:51;12.30;;;8.23;;
1380;SDS011;684;48.342;10.096;2024-01-30T08:11:19;12.97;;;8.70;;
1380;SDS011;684;48.342;10.096;2024-01-30T08:13:50;13.23;;;8.10;;
1380;SDS011;684;48.342;10.096;2024-01-30T08:16:17;28.30;;;18.30;;
1380;SDS011;684;48.342;10.096;2024-01-30T08:18:44;17.33;;;12.70;;
1380;SDS011;684;48.342;10.096;2024-01-30T08:21:10;11.87;;;9.60;;
1380;SDS011;684;48.342;10.096;2024-01-30T08:23:39;11.20;;;8.10;;
1380;SDS011;684;48.342;10.096;2024-01-30T08:26:06;13.10;;;9.90;;
1380;SDS011;684;48.342;10.096;2024-01-30T08:28:33;12.97;;;9.00;;
1380;SDS011;684;48.342;10.096;2024-01-30T08:30:59;13.90;;;9.20;;
1380;SDS011;684;48.342;10.096;2024-01-30T08:33:26;12.43;;;7.87;;
1380;SDS011;684;48.342;10.096;2024-01-30T08:35:53;11.30;;;8.73;;
1380;SDS011;684;48.342;10.096;2024-01-30T08:38:20;13.00;;;9.57;;
1380;SDS011;684;48.342;10.096;2024-01-30T08:40:48;11.23;;;8.00;;
1380;SDS011;684;48.342;10.096;2024-01-30T08:43:15;12.87;;;8.70;;
1380;SDS011;684;48.342;10.096;2024-01-30T08:45:42;11.30;;;8.20;;
1380;SDS011;684;48.342;10.096;2024-01-30T08:48:09;14.57;;;9.47;;
1380;SDS011;684;48.342;10.096;2024-01-30T08:50:36;13.63;;;7.53;;
1380;SDS011;684;48.342;10.096;2024-01-30T08:53:02;13.13;;;9.03;;
1380;SDS011;684;48.342;10.096;2024-01-30T08:55:30;14.03;;;8.70;;
1380;SDS011;684;48.342;10.096;2024-01-30T08:57:58;11.40;;;8.63;;
1380;SDS011;684;48.342;10.096;2024-01-30T09:03:05;14.23;;;9.40;;
1380;SDS011;684;48.342;10.096;2024-01-30T09:05:31;12.40;;;9.37;;
1380;SDS011;684;48.342;10.096;2024-01-30T09:07:58;11.77;;;9.00;;
1380;SDS011;684;48.342;10.096;2024-01-30T09:10:25;11.87;;;8.70;;
1380;SDS011;684;48.342;10.096;2024-01-30T09:12:51;10.83;;;8.63;;
1380;SDS011;684;48.342;10.096;2024-01-30T09:15:19;12.10;;;9.70;;
1380;SDS011;684;48.342;10.096;2024-01-30T09:17:46;14.97;;;9.93;;
1380;SDS011;684;48.342;10.096;2024-01-30T09:20:13;15.10;;;10.20;;
1380;SDS011;684;48.342;10.096;2024-01-30T09:22:40;13.43;;;8.37;;
1380;SDS011;684;48.342;10.096;2024-01-30T09:25:06;13.47;;;10.00;;
1380;SDS011;684;48.342;10.096;2024-01-30T09:27:33;13.20;;;10.30;;
1380;SDS011;684;48.342;10.096;2024-01-30T09:30:00;10.97;;;9.23;;
1380;SDS011;684;48.342;10.096;2024-01-30T09:32:29;13.13;;;9.33;;
1380;SDS011;684;48.342;10.096;2024-01-30T09:34:56;10.00;;;8.40;;
1380;SDS011;684;48.342;10.096;2024-01-30T09:37:23;12.50;;;9.63;;
1380;SDS011;684;48.342;10.096;2024-01-30T09:39:49;11.77;;;9.13;;
1380;SDS011;684;48.342;10.096;2024-01-30T09:42:18;11.77;;;9.87;;
1380;SDS011;684;48.342;10.096;2024-01-30T09:44:52;11.73;;;9.17;;
1380;SDS011;684;48.342;10.096;2024-01-30T09:47:19;11.97;;;8.60;;
1380;SDS011;684;48.342;10.096;2024-01-30T09:49:47;11.17;;;8.50;;
1380;SDS011;684;48.342;10.096;2024-01-30T09:52:15;10.63;;;8.70;;
1380;SDS011;684;48.342;10.096;2024-01-30T09:54:41;11.23;;;8.37;;
1380;SDS011;684;48.342;10.096;2024-01-30T09:57:09;11.70;;;8.73;;
1380;SDS011;684;48.342;10.096;2024-01-30T09:59:37;10.77;;;8.70;;
1380;SDS011;684;48.342;10.096;2024-01-30T10:02:04;9.90;;;8.10;;
1380;SDS011;684;48.342;10.096;2024-01-30T10:04:31;12.40;;;8.60;;
1380;SDS011;684;48.342;10.096;2024-01-30T10:07:01;13.77;;;9.33;;
1380;SDS011;684;48.342;10.096;2024-01-30T10:09:28;12.73;;;9.03;;
1380;SDS011;684;48.342;10.096;2024-01-30T10:11:57;13.83;;;10.00;;
1380;SDS011;684;48.342;10.096;2024-01-30T10:14:24;11.70;;;9.33;;
1380;SDS011;684;48.342;10.096;2024-01-30T10:16:51;13.40;;;9.93;;
1380;SDS011;684;48.342;10.096;2024-01-30T10:19:18;12.00;;;10.70;;
1380;SDS011;684;48.342;10.096;2024-01-30T10:21:45;14.30;;;9.27;;
1380;SDS011;684;48.342;10.096;2024-01-30T10:24:13;13.50;;;9.43;;
1380;SDS011;684;48.342;10.096;2024-01-30T10:26:43;11.70;;;8.40;;
1380;SDS011;684;48.342;10.096;2024-01-30T10:29:10;12.57;;;8.90;;
1380;SDS011;684;48.342;10.096;2024-01-30T10:31:36;15.33;;;9.87;;
1380;SDS011;684;48.342;10.096;2024-01-30T10:34:03;12.13;;;8.40;;
1380;SDS011;684;48.342;10.096;2024-01-30T10:36:31;12.83;;;8.30;;
1380;SDS011;684;48.342;10.096;2024-01-30T10:39:05;10.90;;;8.40;;
1380;SDS011;684;48.342;10.096;2024-01-30T10:41:35;19.00;;;10.80;;
1380;SDS011;684;48.342;10.096;2024-01-30T10:44:09;13.10;;;10.10;;
1380;SDS011;684;48.342;10.096;2024-01-30T10:46:37;14.47;;;9.47;;
1380;SDS011;684;48.342;10.096;2024-01-30T10:49:05;13.07;;;9.30;;
1380;SDS011;684;48.342;10.096;2024-01-30T10:51:32;12.33;;;9.13;;
1380;SDS011;684;48.342;10.096;2024-01-30T10:54:00;13.63;;;10.40;;
1380;SDS011;684;48.342;10.096;2024-01-30T10:56:28;11.53;;;9.43;;
1380;SDS011;684;48.342;10.096;2024-01-30T10:58:59;13.10;;;9.00;;
1380;SDS011;684;48.342;10.096;2024-01-30T11:01:26;11.43;;;8.53;;
1380;SDS011;684;48.342;10.096;2024-01-30T11:03:54;11.27;;;8.90;;
1380;SDS011;684;48.342;10.096;2024-01-30T11:06:22;10.27;;;8.50;;
1380;SDS011;684;48.342;10.096;2024-01-30T11:08:59;12.90;;;9.10;;
1380;SDS011;684;48.342;10.096;2024-01-30T11:11:28;13.27;;;9.00;;
1380;SDS011;684;48.342;10.096;2024-01-30T11:13:54;13.40;;;10.60;;
1380;SDS011;684;48.342;10.096;2024-01-30T11:16:22;17.13;;;12.30;;
1380;SDS011;684;48.342;10.096;2024-01-30T11:18:59;12.53;;;10.20;;
1380;SDS011;684;48.342;10.096;2024-01-30T11:21:27;14.57;;;8.93;;
1380;SDS011;684;48.342;10.096;2024-01-30T11:23:54;12.50;;;9.20;;
1380;SDS011;684;48.342;10.096;2024-01-30T11:26:23;14.40;;;9.70;;
1380;SDS011;684;48.342;10.096;2024-01-30T11:28:53;13.37;;;11.10;;
1380;SDS011;684;48.342;10.096;2024-01-30T11:31:23;14.40;;;10.63;;
1380;SDS011;684;48.342;10.096;2024-01-30T11:33:52;12.77;;;9.13;;
1380;SDS011;684;48.342;10.096;2024-01-30T11:36:19;12.60;;;10.00;;
1380;SDS011;684;48.342;10.096;2024-01-30T11:38:51;13.67;;;9.90;;
1380;SDS011;684;48.342;10.096;2024-01-30T11:41:17;12.77;;;10.17;;
1380;SDS011;684;48.342;10.096;2024-01-30T11:43:50;14.80;;;10.50;;
1380;SDS011;684;48.342;10.096;2024-01-30T11:46:17;11.97;;;9.70;;
1380;SDS011;684;48.342;10.096;2024-01-30T11:48:46;13.40;;;10.50;;
1380;SDS011;684;48.342;10.096;2024-01-30T11:51:13;13.27;;;9.90;;
1380;SDS011;684;48.342;10.096;2024-01-30T11:53:40;11.20;;;9.00;;
1380;SDS011;684;48.342;10.096;2024-01-30T11:56:10;12.17;;;10.10;;
1380;SDS011;684;48.342;10.096;2024-01-30T11:58:42;14.63;;;10.17;;
1380;SDS011;684;48.342;10.096;2024-01-30T12:01:08;12.67;;;9.67;;
1380;SDS011;684;48.342;10.096;2024-01-30T12:03:36;11.10;;;9.17;;
1380;SDS011;684;48.342;10.096;2024-01-30T12:06:04;12.40;;;9.87;;
1380;SDS011;684;48.342;10.096;2024-01-30T12:08:31;13.10;;;8.83;;
1380;SDS011;684;48.342;10.096;2024-01-30T12:10:58;11.97;;;10.07;;
1380;SDS011;684;48.342;10.096;2024-01-30T12:13:26;13.37;;;9.80;;
1380;SDS011;684;48.342;10.096;2024-01-30T12:15:53;14.43;;;11.03;;
1380;SDS011;684;48.342;10.096;2024-01-30T12:18:21;14.77;;;10.00;;
1380;SDS011;684;48.342;10.096;2024-01-30T12:20:56;14.10;;;10.43;;
1380;SDS011;684;48.342;10.096;2024-01-30T12:23:25;20.13;;;9.60;;
1380;SDS011;684;48.342;10.096;2024-01-30T12:25:52;13.37;;;9.97;;
1380;SDS011;684;48.342;10.096;2024-01-30T12:28:19;13.90;;;9.43;;
1380;SDS011;684;48.342;10.096;2024-01-30T12:30:46;17.43;;;10.50;;
1380;SDS011;684;48.342;10.096;2024-01-30T12:33:15;12.20;;;10.47;;
1380;SDS011;684;48.342;10.096;2024-01-30T12:35:45;14.60;;;9.57;;
1380;SDS011;684;48.342;10.096;2024-01-30T12:38:12;12.20;;;9.80;;
1380;SDS011;684;48.342;10.096;2024-01-30T12:40:40;13.17;;;10.30;;
1380;SDS011;684;48.342;10.096;2024-01-30T12:43:07;12.87;;;10.70;;
1380;SDS011;684;48.342;10.096;2024-01-30T12:45:35;13.77;;;11.07;;
1380;SDS011;684;48.342;10.096;2024-01-30T12:48:02;14.33;;;10.43;;
1380;SDS011;684;48.342;10.096;2024-01-30T12:50:29;16.33;;;11.60;;
1380;SDS011;684;48.342;10.096;2024-01-30T12:52:56;15.07;;;11.20;;
1380;SDS011;684;48.342;10.096;2024-01-30T12:55:23;16.93;;;10.73;;
1380;SDS011;684;48.342;10.096;2024-01-30T12:57:54;12.73;;;10.10;;
1380;SDS011;684;48.342;10.096;2024-01-30T13:00:21;12.43;;;9.73;;
1380;SDS011;684;48.342;10.096;2024-01-30T13:02:48;12.50;;;10.47;;
1380;SDS011;684;48.342;10.096;2024-01-30T13:05:15;14.40;;;10.43;;
1380;SDS011;684;48.342;10.096;2024-01-30T13:07:42;12.97;;;9.67;;
1380;SDS011;684;48.342;10.096;2024-01-30T13:10:08;16.67;;;10.27;;
1380;SDS011;684;48.342;10.096;2024-01-30T13:12:35;12.53;;;10.20;;
1380;SDS011;684;48.342;10.096;2024-01-30T13:15:05;17.90;;;10.23;;
1380;SDS011;684;48.342;10.096;2024-01-30T13:17:32;14.50;;;10.53;;
1380;SDS011;684;48.342;10.096;2024-01-30T13:19:59;18.17;;;11.27;;
1380;SDS011;684;48.342;10.096;2024-01-30T13:22:26;16.67;;;10.17;;
1380;SDS011;684;48.342;10.096;2024-01-30T13:24:53;15.30;;;11.20;;
1380;SDS011;684;48.342;10.096;2024-01-30T13:27:19;19.93;;;11.07;;
1380;SDS011;684;48.342;10.096;2024-01-30T13:29:46;15.93;;;10.80;;
1380;SDS011;684;48.342;10.096;2024-01-30T13:32:14;15.17;;;11.40;;
1380;SDS011;684;48.342;10.096;2024-01-30T13:34:41;13.50;;;9.87;;
1380;SDS011;684;48.342;10.096;2024-01-30T13:37:08;11.87;;;8.67;;
1380;SDS011;684;48.342;10.096;2024-01-30T13:39:35;12.63;;;9.70;;
1380;SDS011;684;48.342;10.096;2024-01-30T13:42:02;12.40;;;10.00;;
1380;SDS011;684;48.342;10.096;2024-01-30T13:44:29;13.80;;;9.07;;
1380;SDS011;684;48.342;10.096;2024-01-30T13:46:56;13.30;;;9.67;;
1380;SDS011;684;48.342;10.096;2024-01-30T13:49:24;13.37;;;10.13;;
1380;SDS011;684;48.342;10.096;2024-01-30T13:51:52;15.13;;;9.93;;
1380;SDS011;684;48.342;10.096;2024-01-30T13:54:18;13.27;;;10.20;;
1380;SDS011;684;48.342;10.096;2024-01-30T13:56:45;15.23;;;9.90;;
1380;SDS011;684;48.342;10.096;2024-01-30T13:59:12;13.83;;;11.40;;
1380;SDS011;684;48.342;10.096;2024-01-30T14:01:39;16.90;;;11.10;;
1380;SDS011;684;48.342;10.096;2024-01-30T14:04:05;15.60;;;9.50;;
1380;SDS011;684;48.342;10.096;2024-01-30T14:06:33;13.70;;;10.10;;
1380;SDS011;684;48.342;10.096;2024-01-30T14:09:00;12.90;;;9.60;;
1380;SDS011;684;48.342;10.096;2024-01-30T14:11:28;14.53;;;10.90;;
1380;SDS011;684;48.342;10.096;2024-01-30T14:13:55;13.37;;;10.57;;
1380;SDS011;684;48.342;10.096;2024-01-30T14:16:22;17.27;;;11.70;;
1380;SDS011;684;48.342;10.096;2024-01-30T14:18:49;15.50;;;10.80;;
1380;SDS011;684;48.342;10.096;2024-01-30T14:21:16;15.17;;;10.60;;
1380;SDS011;684;48.342;10.096;2024-01-30T14:23:44;15.30;;;12.13;;
1380;SDS011;684;48.342;10.096;2024-01-30T14:26:12;18.20;;;12.20;;
1380;SDS011;684;48.342;10.096;2024-01-30T14:28:38;18.57;;;12.30;;
1380;SDS011;684;48.342;10.096;2024-01-30T14:31:05;18.83;;;12.10;;
1380;SDS011;684;48.342;10.096;2024-01-30T14:33:32;19.57;;;15.27;;
1380;SDS011;684;48.342;10.096;2024-01-30T14:35:59;19.90;;;14.30;;
1380;SDS011;684;48.342;10.096;2024-01-30T14:38:25;18.60;;;14.00;;
1380;SDS011;684;48.342;10.096;2024-01-30T14:40:54;19.90;;;14.40;;
1380;SDS011;684;48.342;10.096;2024-01-30T14:43:21;17.80;;;13.70;;
1380;SDS011;684;48.342;10.096;2024-01-30T14:45:48;20.00;;;14.10;;
1380;SDS011;684;48.342;10.096;2024-01-30T14:48:15;21.00;;;15.33;;
1380;SDS011;684;48.342;10.096;2024-01-30T14:50:42;17.93;;;13.70;;
1380;SDS011;684;48.342;10.096;2024-01-30T14:53:08;19.47;;;15.23;;
1380;SDS011;684;48.342;10.096;2024-01-30T14:55:35;19.23;;;15.20;;